Westboro, Ohio
Current Conditions -  °F | °C
As of 4:54 AM on Saturday 25 Oct 2014 (Local Time) from KILN Reporting Station
Few Clouds Few Clouds  
Wind Chill: 45°   Ceiling: Unl
Heat Index: 47°   Visibility: 10mi
Dew Point: 40°   Wind: 5mph
Humidity: 77%   Direction: 220°SW
Pressure: 30"   Gusts: NA
Location:  39.2883°N, 83.8861°W
Report Text: KILN 250854Z AUTO 22004KT 10SM FEW095 08/04 A3000 RMK AO2 SLP165 T00830044 58005
Loading
Personal Weather Stations






























Interactive Weather Map
Tropical Storm Tracking
New forecast layout! Learn more

10-Day Weather Forecast

Advertisements
Track Severe Weather on mobile